Airfield :
LOGIN :

Register | Disclaimer

   EN    FR    IT 

 










Legend :    VFR   Marginal VFR   IFR   Intensive IFR   Very Intensive IFR
Visi :
Ceiling :
>= 8 km
>= 3000ft
5 to 8 km
1000 to 3000 ft
1500m to 5 km
500 to 1000 ft
800 to 1500m
200 to 500 ft
< 800m
< 200 ft
Symbols :   Thunderstorms  Fog  Heavy snow  Heavy precipitations  Wind > 20 kt
SIGMETs :     Misc.  Thunderstorms  Icing  Turbulence  Mountain Waves  Volcanic Ashes






- Airport Elevation : 233 ft
- IATA code : REU


LERS - Reus Tarragona

CURRENT METAR :
  • 220000Z AUTO 03002KT 6000 FEW012 11/10 Q1020

EXPIRED METARs :
  • 212330Z AUTO 05001KT 7000 NSC 11/10 Q1020
  • 212300Z AUTO 36002KT 8000 NSC 12/11 Q1021
  • 212230Z AUTO 04003KT 360V070 7000 NSC 11/11 Q1021
  • 212200Z AUTO 04002KT 9000 NSC 12/11 Q1021
  • 212130Z AUTO 05001KT CAVOK 12/11 Q1022
  • 212100Z VRB01KT 9999 FEW016 12/11 Q1022
  • 212030Z 20002KT 9999 FEW016 12/11 Q1022
  • 212000Z 00000KT 9999 FEW015 SCT016 13/11 Q1022
  • 211930Z VRB02KT 9000 FEW015 OVC016 13/11 Q1022
  • 211919Z VRB02KT 9000 FEW014 SCT015 OVC016 13/11 Q1022
  • 211900Z 24004KT 200V270 9000 SCT009 BKN010 OVC014 13/11 Q1022

TAF TAF LERS
Valid from the 21 at 21:00 until the 22 at 21:00 UTC


212000Z 2121/2221 VRB03KT 9999 SCT012 TX20/2213Z TN09/2206Z
TEMPO 2121/2208 BKN008
PROB30
TEMPO 2122/2208 4000 BR BKN004
BECMG 2210/2212 20008KT
BECMG 2217/2219 VRB03KT



MET'MAP, your aeronautical weather chart ! - Copyright ORBIFLY December 2007 - Disclaimer

ORBIFLY MET'MAP TEAM :

Programming & Development : Alexandra Zaïnal
Original concept : Baudouin d'Aumeries
Technical & hardware support : Manuel Goepfert
Assistance : Marc-Olivier Méhu




SOURCES & CREDITS :

   NOAA